Time;durP1;ratioP1;P1;durP2;ratioP2;P2;SDS_P1;SDS_P2;PMS_P1;PMS_P2;Temp;Humidity;BMP_temperature;BMP_pressure;BME280_temperature;BME280_humidity;BME280_pressure;Samples;Min_cycle;Max_cycle;Signal;HPM_P1;HPM_P2
2021/07/28 03:17:17;;;;;;;20.33;9.98;;;;;;;25.53;62.59;100082.16;4372776;27;20207;-87
2021/07/28 03:20:05;;;;;;;19.67;9.30;;;;;;;25.29;63.37;100075.84;4375890;32;20461;-87
2021/07/28 03:22:38;;;;;;;15.90;8.82;;;;;;;25.21;63.93;100068.34;4376223;32;20098;-87
2021/07/28 04:00:32;;;;;;;17.08;8.77;;;;;;;25.70;60.51;100112.34;4387301;27;20778;-86
2021/07/28 04:33:57;;;;;;;20.40;8.43;;;;;;;26.71;60.16;100105.63;4390180;27;20164;-86
2021/07/28 04:36:24;;;;;;;17.30;7.72;;;;;;;26.86;59.53;100110.78;4376757;32;20127;-87
2021/07/28 04:38:51;;;;;;;22.92;8.95;;;;;;;26.98;59.19;100106.28;4371611;32;20134;-87
2021/07/28 04:41:43;;;;;;;18.95;8.25;;;;;;;27.72;57.49;100107.47;4374902;32;20062;-87
2021/07/28 04:53:30;;;;;;;20.42;8.32;;;;;;;28.67;54.01;100086.00;4391076;32;20080;-88
2021/07/28 05:25:38;;;;;;;18.45;6.97;;;;;;;32.52;42.64;100086.84;4387059;27;20486;-85
2021/07/28 10:57:17;;;;;;;12.00;6.35;;;;;;;45.90;14.57;99937.31;5203381;27;20078;31
2021/07/28 10:59:48;;;;;;;21.15;6.43;;;;;;;46.20;14.69;99936.94;4343865;33;20088;-85
2021/07/28 11:02:15;;;;;;;9.90;5.95;;;;;;;45.85;15.14;99922.50;4343463;33;20079;-86
2021/07/28 11:04:44;;;;;;;14.53;7.03;;;;;;;45.63;15.23;99926.03;4357586;33;20103;-85
2021/07/28 11:08:06;;;;;;;14.23;6.03;;;;;;;45.83;14.95;99930.22;4355743;33;20083;-86
2021/07/28 11:10:35;;;;;;;18.27;7.03;;;;;;;45.89;15.37;99929.25;4357222;33;20059;-86
2021/07/28 11:13:35;;;;;;;16.58;7.07;;;;;;;45.91;15.28;99925.13;4342466;33;20063;-86
2021/07/28 11:16:41;;;;;;;12.93;6.20;;;;;;;45.85;15.37;99923.31;4343255;32;20123;-86
2021/07/28 11:19:14;;;;;;;10.20;6.50;;;;;;;45.52;15.84;99916.69;4328368;33;20103;-85
2021/07/28 11:21:48;;;;;;;12.50;7.00;;;;;;;45.62;15.68;99921.56;4338679;33;20099;-85
2021/07/28 11:24:17;;;;;;;10.30;6.10;;;;;;;45.77;15.62;99918.19;4352959;33;20099;-87
2021/07/28 11:26:45;;;;;;;13.38;6.22;;;;;;;45.90;15.24;99915.13;4343842;33;20087;-86
2021/07/28 11:29:20;;;;;;;;;;;;;;;45.85;14.87;99914.16;4344980;33;20119;-86
2021/07/28 11:31:57;;;;;;;20.70;6.25;;;;;;;45.78;15.58;99917.94;4333808;33;19962;-85
2021/07/28 11:34:55;;;;;;;13.15;5.70;;;;;;;45.21;15.70;99918.00;4341749;33;20064;-86
2021/07/28 11:37:34;;;;;;;9.57;6.12;;;;;;;45.28;15.34;99917.87;4333714;33;20075;-87
2021/07/28 11:40:10;;;;;;;12.07;7.03;;;;;;;45.19;14.84;99916.59;4333910;33;20090;-86
2021/07/28 14:27:46;;;;;;;49.78;9.02;;;;;;;43.02;18.11;99798.31;4337711;33;20076;-86
2021/07/28 15:14:43;;;;;;;16.42;5.62;;;;;;;41.51;19.33;99750.22;3068951;27;20080;-85
2021/07/28 15:17:10;;;;;;;10.93;5.62;;;;;;;41.34;19.35;99747.16;4352918;32;20099;-86
2021/07/28 15:19:37;;;;;;;9.82;6.10;;;;;;;41.27;19.52;99744.47;4351546;32;20671;-85
2021/07/28 15:22:13;;;;;;;15.07;5.68;;;;;;;41.46;19.25;99733.47;4351798;32;20087;-85
2021/07/28 15:24:40;;;;;;;13.77;6.03;;;;;;;41.23;19.21;99743.22;4348257;32;20119;-86
2021/07/28 15:27:10;;;;;;;14.02;5.40;;;;;;;41.36;18.87;99739.53;4349572;32;20166;-85
2021/07/28 15:29:37;;;;;;;16.75;6.75;;;;;;;41.18;19.13;99734.81;4350782;32;20091;-86
2021/07/28 15:32:10;;;;;;;11.75;6.12;;;;;;;40.86;19.82;99739.47;4349742;32;20159;-85
2021/07/28 15:34:41;;;;;;;11.07;5.70;;;;;;;40.91;20.12;99733.28;4351275;32;20070;-85
2021/07/28 15:37:08;;;;;;;12.02;6.18;;;;;;;40.83;20.25;99724.25;4363530;32;20167;-86
2021/07/28 15:40:04;;;;;;;15.55;6.70;;;;;;;40.93;19.78;99720.97;4349752;32;20117;-86
2021/07/28 15:42:48;;;;;;;10.05;5.40;;;;;;;40.45;19.92;99718.72;4350460;32;20579;-86
2021/07/28 15:45:17;;;;;;;12.10;5.15;;;;;;;40.33;20.13;99715.84;4348880;32;20139;-85
2021/07/28 15:47:45;;;;;;;10.20;5.30;;;;;;;40.30;20.16;99713.53;4363311;32;20073;-86
2021/07/28 15:50:15;;;;;;;11.50;5.57;;;;;;;40.30;20.19;99720.91;4347823;32;20119;-85
2021/07/28 15:52:43;;;;;;;9.05;4.95;;;;;;;40.06;20.39;99714.22;4362329;32;20122;-86
2021/07/28 15:55:11;;;;;;;11.73;5.37;;;;;;;39.84;20.72;99710.94;4363144;32;20405;-86
2021/07/28 15:57:39;;;;;;;10.90;5.85;;;;;;;39.34;21.11;99710.59;4353927;27;20576;-86
2021/07/28 16:00:08;;;;;;;12.98;5.45;;;;;;;39.26;21.21;99715.19;4363272;32;20121;-85
2021/07/28 16:02:36;;;;;;;16.58;6.15;;;;;;;39.18;21.48;99707.19;4348816;32;20134;-85
2021/07/28 16:05:04;;;;;;;15.65;6.47;;;;;;;39.18;21.65;99712.69;4361953;32;20150;-86
2021/07/28 16:07:32;;;;;;;16.45;6.22;;;;;;;39.20;21.35;99709.69;4348239;32;20394;-85
2021/07/28 16:10:01;;;;;;;11.02;5.28;;;;;;;38.70;21.62;99710.06;4346674;32;20441;-85
2021/07/28 16:12:29;;;;;;;13.35;6.12;;;;;;;38.68;22.25;99705.84;4347569;32;20533;-85
2021/07/28 16:39:25;;;;;;;11.75;5.18;;;;;;;37.47;24.14;99701.69;4345152;33;20091;-85
2021/07/28 16:41:51;;;;;;;12.35;6.18;;;;;;;37.66;24.04;99702.88;4346836;33;20103;-84
2021/07/28 16:44:18;;;;;;;8.02;5.12;;;;;;;37.46;24.63;99712.81;4332769;33;20158;-85
2021/07/28 16:46:49;;;;;;;13.20;5.93;;;;;;;37.37;24.44;99700.31;4345360;33;21086;-84
2021/07/28 16:49:15;;;;;;;12.68;5.93;;;;;;;37.29;24.66;99707.62;4345897;33;20099;-86
2021/07/28 16:51:43;;;;;;;10.65;6.10;;;;;;;37.29;24.70;99695.84;4346245;33;20240;-86
2021/07/28 16:54:10;;;;;;;11.50;6.22;;;;;;;37.14;24.64;99704.16;4346668;33;20056;-86
2021/07/28 16:56:37;;;;;;;11.32;5.35;;;;;;;37.20;24.65;99708.00;4345846;33;20084;-86
2021/07/28 16:59:04;;;;;;;11.70;6.28;;;;;;;37.06;24.86;99717.97;4334289;33;20111;-85
2021/07/28 17:01:31;;;;;;;9.55;5.97;;;;;;;37.00;25.11;99719.63;4346254;33;20115;-85
2021/07/28 17:03:58;;;;;;;15.25;5.90;;;;;;;37.02;25.10;99716.69;4346528;33;20114;-85
2021/07/28 17:06:25;;;;;;;10.30;5.78;;;;;;;36.90;25.08;99719.09;4333000;33;20117;-86
2021/07/28 17:08:52;;;;;;;13.25;6.10;;;;;;;36.81;25.42;99726.56;4333617;33;20111;-86
2021/07/28 17:11:19;;;;;;;10.95;6.25;;;;;;;36.70;25.39;99718.03;4345755;33;20114;-85
2021/07/28 17:13:46;;;;;;;11.57;5.12;;;;;;;36.72;25.62;99724.19;4345314;33;20091;-85
2021/07/28 17:16:13;;;;;;;14.00;6.62;;;;;;;36.49;25.75;99722.41;4332828;33;20092;-85
2021/07/28 17:18:43;;;;;;;10.05;4.95;;;;;;;36.50;25.88;99726.00;4332796;33;20178;-85
2021/07/28 17:21:10;;;;;;;8.27;5.10;;;;;;;35.98;26.28;99724.31;4347074;33;20103;-86
2021/07/28 17:23:37;;;;;;;9.52;5.25;;;;;;;36.05;25.84;99730.72;4334733;33;20099;-86
2021/07/28 17:26:04;;;;;;;13.52;6.20;;;;;;;36.20;25.67;99727.97;4346775;33;20113;-86
2021/07/28 17:28:31;;;;;;;7.90;5.18;;;;;;;35.83;26.09;99732.50;4346465;33;20107;-85
2021/07/28 17:30:59;;;;;;;13.02;6.00;;;;;;;35.97;26.05;99734.37;4348039;33;20099;-85
2021/07/28 17:33:27;;;;;;;11.00;5.50;;;;;;;35.78;25.79;99738.53;4347989;33;20166;-85
2021/07/28 17:35:54;;;;;;;12.15;5.25;;;;;;;35.78;25.92;99738.53;4346833;33;20088;-86
2021/07/28 17:38:23;;;;;;;9.90;4.75;;;;;;;35.89;25.74;99729.88;4347506;33;20138;-84
2021/07/28 17:40:56;;;;;;;10.07;5.28;;;;;;;35.72;25.91;99739.28;4347682;33;20088;-85
2021/07/28 17:43:23;;;;;;;9.23;5.62;;;;;;;35.51;26.08;99742.72;4346504;33;20083;-85
2021/07/28 17:45:50;;;;;;;10.85;5.93;;;;;;;35.59;26.10;99752.72;4334425;33;20162;-85
2021/07/28 17:48:19;;;;;;;12.40;5.30;;;;;;;35.57;25.97;99747.47;4334488;33;20799;-84
2021/07/28 17:50:50;;;;;;;16.00;6.90;;;;;;;35.61;25.80;99754.25;4346512;33;20135;-85
2021/07/28 17:53:17;;;;;;;13.02;6.07;;;;;;;35.56;25.81;99747.66;4347410;33;20179;-85
2021/07/28 17:55:48;;;;;;;10.57;5.85;;;;;;;35.60;26.02;99754.44;4333919;33;20386;-85
2021/07/28 17:58:19;;;;;;;13.10;5.68;;;;;;;35.65;25.83;99760.19;4334276;33;20108;-85
2021/07/28 18:00:53;;;;;;;9.55;5.80;;;;;;;35.72;26.05;99763.88;4347470;33;20210;-85
2021/07/28 18:03:35;;;;;;;15.13;6.43;;;;;;;35.57;26.13;99763.03;4340792;27;20289;-85
2021/07/28 18:06:07;;;;;;;13.25;5.85;;;;;;;35.60;26.50;99768.12;4348654;32;20110;-86
2021/07/28 18:08:35;;;;;;;10.95;6.10;;;;;;;35.58;26.66;99767.44;4361737;32;20242;-85
2021/07/28 18:11:02;;;;;;;11.75;5.57;;;;;;;35.53;26.82;99769.84;4348291;32;20107;-85
2021/07/28 18:13:28;;;;;;;14.80;6.53;;;;;;;35.30;27.50;99769.88;4348285;32;20091;-85
2021/07/28 18:15:56;;;;;;;12.45;5.75;;;;;;;35.34;27.33;99772.06;4362367;32;20095;-85
2021/07/28 18:18:22;;;;;;;9.77;5.78;;;;;;;35.22;27.70;99781.75;4362539;32;20153;-86
2021/07/28 18:20:49;;;;;;;11.02;6.22;;;;;;;35.17;28.60;99770.50;4348499;32;20123;-85
2021/07/28 18:23:16;;;;;;;15.35;5.18;;;;;;;35.16;28.38;99780.59;4346583;27;20111;-85
2021/07/28 18:25:44;;;;;;;12.98;5.55;;;;;;;35.09;28.15;99778.75;4345766;33;20545;-85
2021/07/28 18:28:11;;;;;;;12.43;5.68;;;;;;;35.03;28.48;99780.31;4347089;33;20115;-85
2021/07/28 18:30:38;;;;;;;8.82;5.22;;;;;;;34.86;28.77;99786.91;4333797;33;20146;-85
2021/07/28 18:33:05;;;;;;;11.88;5.18;;;;;;;34.96;29.01;99782.06;4332776;33;20615;-85
2021/07/28 18:35:32;;;;;;;30.12;8.02;;;;;;;34.65;29.35;99784.84;4346869;33;20118;-85
2021/07/28 18:38:01;;;;;;;32.78;7.22;;;;;;;34.59;29.04;99781.81;4345644;33;20171;-85
2021/07/28 18:40:30;;;;;;;;;;;;;;;34.54;29.61;99794.25;4347196;33;20107;-85
2021/07/28 18:42:57;;;;;;;17.10;6.20;;;;;;;34.57;30.17;99793.94;4346994;33;19997;-85
2021/07/28 18:45:26;;;;;;;9.60;5.82;;;;;;;34.44;30.23;99801.78;4333808;33;20469;-85
2021/07/28 18:47:53;;;;;;;28.73;8.25;;;;;;;34.42;30.56;99804.72;4333522;33;20704;-85
2021/07/28 18:50:20;;;;;;;20.73;7.75;;;;;;;34.21;30.92;99801.72;4346853;33;20107;-85
2021/07/28 18:52:47;;;;;;;18.30;5.75;;;;;;;34.12;31.91;99809.06;4333390;33;20139;-85
2021/07/28 18:55:14;;;;;;;14.75;5.40;;;;;;;33.95;30.99;99810.97;4346775;33;20107;-85
2021/07/28 18:57:41;;;;;;;14.43;5.90;;;;;;;33.86;31.17;99820.22;4346848;33;20180;-85
2021/07/28 19:00:08;;;;;;;13.43;6.80;;;;;;;33.86;31.36;99831.09;4346721;33;20108;-85
2021/07/28 19:02:35;;;;;;;10.93;5.80;;;;;;;33.73;30.77;99831.63;4333514;33;20177;-85
2021/07/28 19:05:04;;;;;;;15.07;5.37;;;;;;;33.64;30.67;99829.94;4333601;33;20619;-85
2021/07/28 19:07:31;;;;;;;21.37;6.28;;;;;;;33.21;32.43;99834.69;4346735;33;20103;-85
2021/07/28 19:09:58;;;;;;;16.67;6.00;;;;;;;33.41;32.46;99840.63;4333387;33;20138;-85
2021/07/28 19:12:25;;;;;;;10.50;6.03;;;;;;;33.32;32.27;99836.19;4346528;33;20087;-85
2021/07/28 19:14:53;;;;;;;13.07;5.30;;;;;;;33.17;31.54;99847.75;4346913;33;20075;-85
2021/07/28 19:17:20;;;;;;;13.00;5.25;;;;;;;33.07;31.24;99847.06;4333025;33;20091;-85
2021/07/28 19:19:47;;;;;;;12.37;5.43;;;;;;;32.94;32.00;99849.37;4346481;33;20095;-85
2021/07/28 19:22:16;;;;;;;9.85;4.93;;;;;;;32.88;31.34;99855.50;4346645;33;20096;-84
2021/07/28 19:24:43;;;;;;;11.02;6.05;;;;;;;32.72;30.55;99851.72;4333183;33;20427;-84
2021/07/28 19:27:10;;;;;;;14.82;6.37;;;;;;;32.56;31.58;99863.41;4345299;33;20166;-84
2021/07/28 19:29:37;;;;;;;15.88;5.82;;;;;;;30.50;36.64;99934.03;4346722;33;20395;-84
2021/07/28 19:32:04;;;;;;;11.60;4.50;;;;;;;30.32;37.06;99944.81;4345652;33;20130;-84
2021/07/28 19:34:31;;;;;;;14.05;4.00;;;;;;;28.70;43.17;99961.41;4346714;33;20460;-84
2021/07/28 19:36:58;;;;;;;19.48;4.18;;;;;;;27.79;46.25;99992.63;4346701;33;20395;-84
2021/07/28 19:39:27;;;;;;;11.25;3.97;;;;;;;28.33;45.41;99981.81;4345632;33;20162;-84
2021/07/28 19:41:54;;;;;;;12.37;4.00;;;;;;;27.25;48.47;99996.22;4347425;33;20110;-83
2021/07/28 19:44:21;;;;;;;13.10;3.72;;;;;;;27.22;49.03;99996.47;4333171;33;20583;-84
2021/07/28 19:46:48;;;;;;;13.75;5.30;;;;;;;27.00;49.65;100001.84;4334557;33;20118;-85
2021/07/28 19:49:15;;;;;;;7.53;3.60;;;;;;;26.98;50.10;100009.22;4349190;33;20449;-84
2021/07/28 19:51:49;;;;;;;9.73;3.70;;;;;;;26.89;50.41;100014.34;4349297;33;20095;-84
2021/07/28 19:54:16;;;;;;;9.20;4.12;;;;;;;27.34;49.36;100005.41;4349496;33;20103;-84
2021/07/28 19:56:45;;;;;;;10.55;4.00;;;;;;;27.05;50.12;100018.50;4336386;33;20732;-84
2021/07/28 19:59:13;;;;;;;4.37;3.08;;;;;;;27.12;49.93;100020.59;4350130;33;20150;-84
2021/07/28 20:01:40;;;;;;;6.75;3.67;;;;;;;26.69;51.13;100020.47;4336328;33;20486;-86
2021/07/28 20:04:09;;;;;;;5.95;3.55;;;;;;;27.52;48.91;100021.91;4336837;33;20107;-86
2021/07/28 20:06:36;;;;;;;7.47;3.97;;;;;;;27.04;50.27;100041.06;4335766;33;20155;-85
2021/07/28 20:09:03;;;;;;;12.93;3.95;;;;;;;27.03;50.24;100044.72;4335409;33;20075;-85
2021/07/28 20:11:30;;;;;;;6.93;4.00;;;;;;;27.05;50.36;100049.03;4348570;33;20110;-85
2021/07/28 20:14:00;;;;;;;;;;;;;;;27.00;50.63;100062.00;4348222;33;20146;-85
2021/07/28 20:16:27;;;;;;;10.38;3.90;;;;;;;27.55;48.95;100067.53;4334341;33;19979;-85
2021/07/28 20:18:54;;;;;;;9.82;4.12;;;;;;;27.67;48.62;100058.41;4333421;33;20167;-85
2021/07/28 20:21:23;;;;;;;7.03;4.15;;;;;;;26.72;51.57;100058.81;4332914;33;20434;-84
2021/07/28 20:23:51;;;;;;;6.18;3.85;;;;;;;27.05;50.71;100056.25;4346329;33;20091;-85
2021/07/28 20:26:18;;;;;;;7.43;4.93;;;;;;;27.07;50.76;100052.47;4346633;33;20140;-85
2021/07/28 20:28:46;;;;;;;5.85;3.95;;;;;;;26.65;51.93;100062.09;4346836;33;20091;-84
2021/07/28 20:31:14;;;;;;;4.40;3.70;;;;;;;26.53;52.33;100061.22;4346661;33;20087;-85
2021/07/28 20:33:41;;;;;;;4.93;3.50;;;;;;;26.73;51.81;100052.44;4346613;33;20158;-84
2021/07/28 20:36:08;;;;;;;8.05;3.72;;;;;;;27.12;50.55;100052.06;4346156;33;20092;-85
2021/07/28 20:38:35;;;;;;;6.15;4.30;;;;;;;26.70;51.95;100051.81;4333028;33;20221;-85
2021/07/28 20:41:02;;;;;;;7.55;3.90;;;;;;;26.88;51.59;100058.44;4346189;33;20096;-84
2021/07/28 20:43:30;;;;;;;5.60;3.67;;;;;;;26.67;51.94;100054.75;4332530;33;20107;-86
2021/07/28 20:46:08;;;;;;;7.87;4.25;;;;;;;26.09;53.39;100059.22;4346180;33;20104;-86
2021/07/28 20:48:35;;;;;;;6.97;3.92;;;;;;;26.30;53.01;100057.59;4346272;33;20099;-86
2021/07/28 20:51:03;;;;;;;8.20;4.25;;;;;;;26.39;52.55;100066.81;4345973;33;20162;-85
2021/07/28 20:53:32;;;;;;;5.35;3.92;;;;;;;26.44;52.68;100073.56;4346274;33;20578;-86
2021/07/28 20:55:59;;;;;;;6.43;3.93;;;;;;;26.57;51.72;100061.88;4347281;33;20158;-85
2021/07/28 20:58:26;;;;;;;5.12;3.75;;;;;;;26.56;52.20;100069.09;4347576;33;20671;-85
2021/07/28 21:00:53;;;;;;;8.55;4.03;;;;;;;26.79;51.41;100061.03;4347981;33;20103;-85
2021/07/28 21:03:20;;;;;;;7.28;4.60;;;;;;;26.55;52.05;100051.19;4347648;33;20379;-85
2021/07/28 21:05:47;;;;;;;8.43;4.70;;;;;;;26.69;51.55;100052.81;4347897;33;20450;-85
2021/07/28 21:08:14;;;;;;;8.23;4.35;;;;;;;26.37;52.19;100061.53;4334498;33;20123;-85
2021/07/28 21:10:41;;;;;;;7.57;4.55;;;;;;;26.60;51.07;100048.16;4347757;33;20088;-86
2021/07/28 21:13:08;;;;;;;8.15;4.90;;;;;;;27.13;50.13;100051.97;4347761;33;20095;-85
2021/07/28 21:15:38;;;;;;;6.15;4.53;;;;;;;26.58;51.62;100053.66;4347997;33;20138;-85
2021/07/28 21:18:05;;;;;;;7.53;4.35;;;;;;;26.72;49.90;100069.59;4348517;33;20212;-85
2021/07/28 21:20:32;;;;;;;5.75;3.75;;;;;;;27.11;48.80;100080.03;4348192;32;20158;-85
2021/07/28 21:22:58;;;;;;;8.38;4.40;;;;;;;27.25;48.90;100089.75;4347795;32;20072;-85
2021/07/28 21:25:25;;;;;;;4.70;4.15;;;;;;;27.09;49.63;100087.38;4348144;33;20095;-85
2021/07/28 21:27:52;;;;;;;7.57;4.15;;;;;;;26.99;49.97;100086.41;4348579;33;20142;-85
2021/07/28 21:30:19;;;;;;;8.40;4.50;;;;;;;27.07;49.87;100090.22;4347970;32;20166;-85
2021/07/28 21:32:51;;;;;;;6.37;4.40;;;;;;;27.39;49.12;100079.56;4348037;33;20497;-86
2021/07/28 21:35:18;;;;;;;6.35;3.97;;;;;;;27.21;49.49;100088.28;4348087;33;20502;-85
2021/07/28 21:37:48;;;;;;;8.18;4.07;;;;;;;27.55;48.75;100084.56;4334880;33;20127;-85
2021/07/28 21:40:15;;;;;;;7.68;4.62;;;;;;;27.67;48.04;100082.69;4348392;32;20114;-86
2021/07/28 21:42:46;;;;;;;6.78;4.72;;;;;;;27.29;49.06;100083.97;4348827;33;20109;-85
2021/07/28 21:48:01;;;;;;;5.45;4.85;;;;;;;27.20;49.30;100076.62;4348334;33;20103;-85
2021/07/28 21:50:29;;;;;;;6.60;4.43;;;;;;;26.80;50.71;100079.78;4334806;33;20244;-85
2021/07/28 21:53:37;;;;;;;6.12;4.72;;;;;;;26.76;50.81;100067.50;4348803;33;20095;-85
2021/07/28 21:56:07;;;;;;;6.65;4.37;;;;;;;27.02;49.01;100078.94;4306093;33;20582;-85
2021/07/28 21:58:46;;;;;;;4.95;4.30;;;;;;;27.28;48.76;100094.91;4343473;33;20099;-85
2021/07/28 22:01:41;;;;;;;7.80;4.22;;;;;;;27.26;48.77;100113.91;4336308;33;20463;-85
2021/07/28 22:04:09;;;;;;;8.60;4.93;;;;;;;27.24;48.13;100110.47;4350399;33;20154;-86
2021/07/28 22:06:36;;;;;;;10.23;4.70;;;;;;;27.04;49.61;100108.47;4349473;33;20104;-86
2021/07/28 22:09:06;;;;;;;5.70;4.43;;;;;;;26.82;49.35;100112.84;4350557;33;20134;-86
2021/07/28 22:11:34;;;;;;;7.37;4.47;;;;;;;26.64;50.48;100106.19;4349729;33;20092;-85
2021/07/28 22:14:01;;;;;;;5.93;5.15;;;;;;;26.61;50.31;100101.91;4336820;33;20136;-86
2021/07/28 22:16:28;;;;;;;7.72;4.70;;;;;;;26.59;50.48;100097.59;4335790;33;20119;-85
2021/07/28 22:18:55;;;;;;;6.72;5.05;;;;;;;26.18;51.66;100077.41;4349483;33;20155;-86
2021/07/28 22:21:22;;;;;;;6.85;5.45;;;;;;;24.76;55.71;100051.78;4350354;33;20103;-85
2021/07/28 22:23:58;;;;;;;6.43;4.95;;;;;;;24.75;55.83;100050.09;4350414;33;20123;-85
2021/07/28 22:26:27;;;;;;;6.05;4.50;;;;;;;25.04;55.07;100082.09;4349896;33;20114;-85
2021/07/28 22:29:02;;;;;;;9.10;5.18;;;;;;;25.56;52.75;100100.75;4337005;33;20171;-85
2021/07/28 22:31:30;;;;;;;6.22;5.18;;;;;;;25.69;52.62;100126.75;4336910;33;20138;-85
2021/07/28 22:33:57;;;;;;;5.57;4.97;;;;;;;25.72;52.05;100134.63;4350299;33;20107;-85
2021/07/28 22:36:24;;;;;;;6.80;4.72;;;;;;;25.83;52.35;100123.97;4350179;33;20084;-86
2021/07/28 22:38:51;;;;;;;6.95;4.93;;;;;;;25.61;53.01;100119.25;4350796;33;20159;-86
2021/07/28 22:41:18;;;;;;;4.97;4.35;;;;;;;26.17;51.24;100116.03;4352387;27;20121;-86
2021/07/28 22:43:45;;;;;;;7.75;5.05;;;;;;;25.83;52.13;100132.03;4352601;32;20167;-86
2021/07/28 22:46:14;;;;;;;6.68;4.97;;;;;;;25.56;53.03;100132.16;4366069;32;20094;-86
2021/07/28 22:53:54;;;;;;;7.25;4.60;;;;;;;25.57;52.96;100131.22;4366133;32;20122;-85
2021/07/28 22:56:35;;;;;;;7.18;4.50;;;;;;;25.55;52.23;100142.06;4365219;32;20473;-85
